Seabrook, South Carolina
Current Conditions -  °F | °C
As of 8:56 PM on Tuesday 21 Oct 2014 (Local Time) from KNBC Reporting Station
Clear Clear  
Wind Chill: 66°   Ceiling: Unl
Heat Index: 66°   Visibility: 10mi
Dew Point: 60°   Wind: 5mph
Humidity: 81%   Direction: 220°SW
Pressure: 29.92"   Gusts: NA
Location:  32.53°N, 80.77°W
Report Text: KNBC 220056Z 22004KT 10SM CLR 19/16 A2992 RMK AO2 SLP130 T01890156 $
Loading
Personal Weather Stations






























Interactive Weather Map
Tropical Storm Tracking
New forecast layout! Learn more

10-Day Weather Forecast

Advertisements
Track Severe Weather on mobile